Time;durP1;ratioP1;P1;durP2;ratioP2;P2;SDS_P1;SDS_P2;PMS_P1;PMS_P2;Temp;Humidity;BMP_temperature;BMP_pressure;BME280_temperature;BME280_humidity;BME280_pressure;Samples;Min_cycle;Max_cycle;Signal;HPM_P1;HPM_P2
2021/10/30 00:01:15;;;;;;;8.93;6.10;;;12.60;99.90;;;;;;5052038;28;20049;-65
2021/10/30 00:03:41;;;;;;;10.77;6.05;;;12.50;99.90;;;;;;5058455;28;20040;-65
2021/10/30 00:06:08;;;;;;;9.40;6.10;;;12.40;99.90;;;;;;5085000;28;20044;-65
2021/10/30 00:08:33;;;;;;;8.25;6.65;;;12.40;99.90;;;;;;5056942;28;21298;-65
2021/10/30 00:10:59;;;;;;;10.70;6.82;;;12.40;99.90;;;;;;5055183;28;20040;-65
2021/10/30 00:13:25;;;;;;;7.57;6.53;;;12.40;99.90;;;;;;5052623;28;20403;-65
2021/10/30 00:15:51;;;;;;;7.25;6.30;;;12.30;99.90;;;;;;5054425;28;20032;-65
2021/10/30 00:18:17;;;;;;;9.75;6.80;;;12.30;99.90;;;;;;5056605;28;20974;-65
2021/10/30 00:20:43;;;;;;;8.40;7.25;;;12.30;99.90;;;;;;5058353;28;20041;-65
2021/10/30 00:23:09;;;;;;;6.80;6.00;;;12.20;99.90;;;;;;5054283;28;20163;-65
2021/10/30 00:25:34;;;;;;;9.95;7.20;;;12.20;99.90;;;;;;5053083;28;20044;-65
2021/10/30 00:28:00;;;;;;;9.77;7.35;;;12.20;99.90;;;;;;5055143;28;20055;-65
2021/10/30 00:30:26;;;;;;;8.98;6.82;;;12.20;99.90;;;;;;5052358;28;20029;-65
2021/10/30 00:32:51;;;;;;;8.70;6.85;;;12.20;99.90;;;;;;5053278;28;20400;-65
2021/10/30 00:35:17;;;;;;;7.07;6.38;;;12.20;99.90;;;;;;5042289;28;20450;-65
2021/10/30 00:37:43;;;;;;;17.13;7.07;;;12.10;99.90;;;;;;5056855;28;20855;-65
2021/10/30 00:40:11;;;;;;;12.50;7.57;;;12.10;99.90;;;;;;5057613;28;20039;-65
2021/10/30 00:42:38;;;;;;;7.30;6.20;;;12.10;99.90;;;;;;5056561;28;20043;-65
2021/10/30 00:45:04;;;;;;;10.60;6.80;;;12.10;99.90;;;;;;5070830;28;20497;-65
2021/10/30 00:47:30;;;;;;;7.45;6.15;;;12.10;99.90;;;;;;5036471;28;20083;-65
2021/10/30 00:49:56;;;;;;;11.32;5.80;;;12.00;99.90;;;;;;5056433;28;20151;-65
2021/10/30 00:52:22;;;;;;;9.95;5.50;;;12.00;99.90;;;;;;5055748;28;20461;-66
2021/10/30 00:54:51;;;;;;;5.85;5.30;;;11.90;99.90;;;;;;5056985;28;20068;-65
2021/10/30 00:57:18;;;;;;;6.50;5.90;;;11.90;99.90;;;;;;5057157;28;20124;-65
2021/10/30 00:59:47;;;;;;;10.80;6.68;;;11.90;99.90;;;;;;5056273;28;20045;-65
2021/10/30 01:02:12;;;;;;;6.35;5.72;;;11.80;99.90;;;;;;5056264;28;20417;-65
2021/10/30 01:04:38;;;;;;;9.02;6.32;;;11.80;99.90;;;;;;5054008;28;20280;-65
2021/10/30 01:07:05;;;;;;;7.03;5.80;;;11.90;99.90;;;;;;5053042;28;20037;-65
2021/10/30 01:09:31;;;;;;;8.35;5.72;;;11.80;99.90;;;;;;5056183;28;20040;-65
2021/10/30 01:11:57;;;;;;;7.63;5.28;;;11.80;99.90;;;;;;5057208;28;20032;-65
2021/10/30 01:14:23;;;;;;;6.35;5.70;;;11.80;99.90;;;;;;5091300;28;20430;-65
2021/10/30 01:16:57;;;;;;;6.15;5.53;;;11.70;99.90;;;;;;5057445;28;20398;-65
2021/10/30 01:19:22;;;;;;;6.28;5.68;;;11.70;99.90;;;;;;5061515;28;20381;-65
2021/10/30 01:21:48;;;;;;;7.88;5.97;;;11.70;99.90;;;;;;5056814;28;20147;-67
2021/10/30 01:24:13;;;;;;;9.23;5.68;;;11.70;99.90;;;;;;5057102;28;20430;-66
2021/10/30 01:26:39;;;;;;;6.65;5.13;;;11.70;99.90;;;;;;5058265;28;20035;-66
2021/10/30 01:29:05;;;;;;;7.32;6.03;;;11.70;99.90;;;;;;5057752;28;20047;-65
2021/10/30 01:31:31;;;;;;;6.53;5.22;;;11.60;99.90;;;;;;5055525;28;20072;-66
2021/10/30 01:33:58;;;;;;;5.95;5.30;;;11.60;99.90;;;;;;5059917;28;20052;-66
2021/10/30 01:36:24;;;;;;;7.63;5.57;;;11.60;99.90;;;;;;5057587;28;20127;-66
2021/10/30 01:38:51;;;;;;;8.25;5.20;;;11.50;99.90;;;;;;5059499;28;20160;-66
2021/10/30 01:41:17;;;;;;;6.35;5.75;;;11.60;99.90;;;;;;5057263;28;20741;-66
2021/10/30 01:43:43;;;;;;;6.15;5.55;;;11.60;99.90;;;;;;5061172;28;20057;-66
2021/10/30 01:46:09;;;;;;;8.07;6.93;;;11.60;99.90;;;;;;5058057;28;20048;-66
2021/10/30 01:48:37;;;;;;;8.65;5.63;;;11.60;99.90;;;;;;5059321;28;20032;-65
2021/10/30 01:51:05;;;;;;;8.48;6.35;;;11.50;99.90;;;;;;5057816;28;20410;-65
2021/10/30 01:53:31;;;;;;;7.35;5.75;;;11.50;99.90;;;;;;5054448;28;20390;-65
2021/10/30 01:55:57;;;;;;;6.35;5.75;;;11.50;99.90;;;;;;5058685;28;20118;-65
2021/10/30 01:58:23;;;;;;;7.63;6.22;;;11.50;99.90;;;;;;5055160;28;20045;-65
2021/10/30 02:00:50;;;;;;;7.40;6.70;;;11.40;99.90;;;;;;5058130;28;20031;-65
2021/10/30 02:03:16;;;;;;;9.55;5.97;;;11.40;99.90;;;;;;5057520;28;20536;-65
2021/10/30 02:05:41;;;;;;;7.25;6.55;;;11.40;99.90;;;;;;5056022;28;20041;-65
2021/10/30 02:08:07;;;;;;;7.60;6.78;;;11.40;99.90;;;;;;5057532;28;20110;-65
2021/10/30 02:10:33;;;;;;;7.50;6.72;;;11.30;99.90;;;;;;5054300;28;20129;-65
2021/10/30 02:12:59;;;;;;;8.88;6.65;;;11.40;99.90;;;;;;5057809;28;20040;-65
2021/10/30 02:15:25;;;;;;;9.68;8.25;;;11.30;99.90;;;;;;5057279;28;20048;-65
2021/10/30 02:17:51;;;;;;;13.82;7.65;;;11.40;99.90;;;;;;5059485;28;20036;-65
2021/10/30 02:20:17;;;;;;;10.48;7.85;;;11.40;99.90;;;;;;5055889;28;20036;-65
2021/10/30 02:22:42;;;;;;;7.90;7.10;;;11.40;99.90;;;;;;5058324;28;20163;-65
2021/10/30 02:25:09;;;;;;;8.55;7.60;;;11.30;99.90;;;;;;5058934;28;20043;-65
2021/10/30 02:27:36;;;;;;;10.95;7.65;;;11.30;99.90;;;;;;5062285;28;20056;-65
2021/10/30 02:30:04;;;;;;;10.80;8.38;;;11.40;99.90;;;;;;5062693;28;20509;-65
2021/10/30 02:32:30;;;;;;;9.85;7.10;;;11.40;99.90;;;;;;5063776;28;20570;-65
2021/10/30 02:34:55;;;;;;;8.60;7.75;;;11.30;99.90;;;;;;5064657;28;20166;-65
2021/10/30 02:37:21;;;;;;;11.05;8.00;;;11.30;99.90;;;;;;5065852;28;20090;-65
2021/10/30 02:39:47;;;;;;;8.10;7.30;;;11.30;99.90;;;;;;5066104;28;20497;-65
2021/10/30 02:42:13;;;;;;;10.63;7.68;;;11.30;99.90;;;;;;5065361;28;20162;-65
2021/10/30 02:44:39;;;;;;;9.70;7.38;;;11.30;99.90;;;;;;5063131;28;20041;-65
2021/10/30 02:47:05;;;;;;;8.48;7.47;;;11.30;99.90;;;;;;5066165;28;20437;-65
2021/10/30 02:49:31;;;;;;;10.50;7.57;;;11.30;99.90;;;;;;5065213;28;20175;-65
2021/10/30 02:51:57;;;;;;;10.60;8.05;;;11.20;99.90;;;;;;5093917;27;20482;-65
2021/10/30 02:54:22;;;;;;;8.73;7.18;;;11.20;99.90;;;;;;5063309;28;20055;-65
2021/10/30 02:56:48;;;;;;;8.80;7.90;;;11.20;99.90;;;;;;5067593;28;20219;-65
2021/10/30 02:59:14;;;;;;;8.57;7.80;;;11.20;99.90;;;;;;5066317;28;20129;-65
2021/10/30 03:01:39;;;;;;;8.27;7.00;;;11.20;99.90;;;;;;5066120;28;20033;-65
2021/10/30 03:04:05;;;;;;;9.48;8.57;;;11.10;99.90;;;;;;5060419;28;20125;-65
2021/10/30 03:06:31;;;;;;;9.00;8.20;;;11.10;99.90;;;;;;5060181;28;20128;-65
2021/10/30 03:08:58;;;;;;;10.82;8.45;;;11.10;99.90;;;;;;5063629;28;21621;-65
2021/10/30 03:11:23;;;;;;;11.75;8.52;;;11.00;99.90;;;;;;5063922;28;20497;-65
2021/10/30 03:13:49;;;;;;;10.63;8.18;;;11.00;99.90;;;;;;5060355;28;20262;-65
2021/10/30 03:16:15;;;;;;;12.60;9.38;;;11.00;99.90;;;;;;5059895;28;20044;-65
2021/10/30 03:18:40;;;;;;;14.23;8.93;;;11.00;99.90;;;;;;5061694;28;20494;-65
2021/10/30 03:21:06;;;;;;;12.68;9.40;;;11.00;99.90;;;;;;5065755;28;20025;-65
2021/10/30 03:23:32;;;;;;;10.32;9.43;;;11.00;99.90;;;;;;5062349;28;20525;-65
2021/10/30 03:25:57;;;;;;;9.65;8.85;;;11.00;99.90;;;;;;5063454;28;20068;-65
2021/10/30 03:28:23;;;;;;;11.40;10.20;;;11.00;99.90;;;;;;5062770;28;20033;-65
2021/10/30 03:30:49;;;;;;;10.77;8.88;;;11.00;99.90;;;;;;5066087;28;20653;-65
2021/10/30 03:33:15;;;;;;;10.23;9.07;;;11.00;99.90;;;;;;5059824;28;20482;-65
2021/10/30 03:35:40;;;;;;;10.77;9.63;;;11.00;99.90;;;;;;5063174;28;20032;-65
2021/10/30 03:38:06;;;;;;;11.02;9.90;;;11.00;99.90;;;;;;5063205;28;20458;-65
2021/10/30 03:40:32;;;;;;;12.30;9.68;;;10.90;99.90;;;;;;5061446;28;20040;-65
2021/10/30 03:42:57;;;;;;;14.43;11.02;;;11.00;99.90;;;;;;5062363;28;20077;-65
2021/10/30 03:45:24;;;;;;;10.85;9.85;;;11.00;99.90;;;;;;5063948;28;20066;-65
2021/10/30 03:47:49;;;;;;;13.65;11.50;;;10.90;99.90;;;;;;5061514;28;20059;-65
2021/10/30 03:50:15;;;;;;;11.57;9.73;;;11.00;99.90;;;;;;5061737;28;20033;-65
2021/10/30 03:52:41;;;;;;;11.38;10.05;;;11.00;99.90;;;;;;5058074;28;20036;-65
2021/10/30 03:55:07;;;;;;;13.15;10.07;;;10.90;99.90;;;;;;5062399;28;20030;-65
2021/10/30 03:57:38;;;;;;;11.85;10.30;;;10.90;99.90;;;;;;5089692;28;20051;-65
2021/10/30 04:00:07;;;;;;;12.05;10.82;;;10.90;99.90;;;;;;5062606;28;20115;-65
2021/10/30 04:02:32;;;;;;;11.38;10.27;;;10.90;99.90;;;;;;5061026;28;20398;-65
2021/10/30 04:04:58;;;;;;;15.70;12.13;;;10.80;99.90;;;;;;5089480;28;20032;-65
2021/10/30 04:07:24;;;;;;;13.15;11.77;;;10.80;99.90;;;;;;5058947;28;20041;-65
2021/10/30 04:09:49;;;;;;;12.00;10.80;;;10.80;99.90;;;;;;5055936;28;20047;-65
2021/10/30 04:12:15;;;;;;;13.15;11.88;;;10.80;99.90;;;;;;5092590;28;20063;-65
2021/10/30 04:14:40;;;;;;;14.07;12.57;;;10.80;99.90;;;;;;5061404;28;20139;-65
2021/10/30 04:17:06;;;;;;;13.18;11.90;;;10.80;99.90;;;;;;5062074;28;20040;-65
2021/10/30 04:19:32;;;;;;;13.88;12.43;;;10.80;99.90;;;;;;5059510;28;20409;-65
2021/10/30 04:21:57;;;;;;;22.55;14.90;;;10.80;99.90;;;;;;5062852;28;20056;-65
2021/10/30 04:24:23;;;;;;;18.65;14.70;;;10.80;99.90;;;;;;5060340;28;20053;-65
2021/10/30 04:26:49;;;;;;;17.75;15.63;;;10.80;99.90;;;;;;5063965;28;20052;-65
2021/10/30 04:29:15;;;;;;;17.48;15.48;;;10.80;99.90;;;;;;5061440;28;20124;-65
2021/10/30 04:31:41;;;;;;;17.75;15.88;;;10.80;99.90;;;;;;5064746;28;20045;-65
2021/10/30 04:34:08;;;;;;;20.98;16.70;;;10.80;99.90;;;;;;5071620;28;20083;-65
2021/10/30 04:36:35;;;;;;;18.15;16.17;;;10.80;99.90;;;;;;5091858;28;20135;-65
2021/10/30 04:39:03;;;;;;;17.33;14.48;;;10.90;99.90;;;;;;5062566;28;20047;-65
2021/10/30 04:41:29;;;;;;;16.90;15.20;;;10.90;99.90;;;;;;5062833;28;20048;-65
2021/10/30 04:43:55;;;;;;;19.55;16.27;;;10.90;99.90;;;;;;5062211;28;20068;-65
2021/10/30 04:46:22;;;;;;;16.75;14.88;;;10.90;99.90;;;;;;5062805;28;20048;-65
2021/10/30 04:48:48;;;;;;;16.85;14.05;;;10.90;99.90;;;;;;5066155;28;20039;-65
2021/10/30 04:51:15;;;;;;;17.88;15.80;;;10.90;99.90;;;;;;5067143;28;20394;-65
2021/10/30 04:53:42;;;;;;;16.85;14.38;;;10.90;99.90;;;;;;5096425;28;20090;-65
2021/10/30 04:56:09;;;;;;;15.27;13.70;;;10.90;99.90;;;;;;5072050;28;20044;-65
2021/10/30 04:58:35;;;;;;;18.77;14.95;;;10.90;99.90;;;;;;5069183;28;20068;-65
2021/10/30 05:01:01;;;;;;;19.33;16.08;;;10.90;99.90;;;;;;5094130;28;20048;-65
2021/10/30 05:03:28;;;;;;;16.58;14.77;;;10.90;99.90;;;;;;5094611;28;20090;-65
2021/10/30 05:05:54;;;;;;;20.73;15.73;;;10.90;99.90;;;;;;5065249;28;20434;-65
2021/10/30 05:08:20;;;;;;;17.55;15.15;;;10.90;99.90;;;;;;5067481;28;20043;-65
2021/10/30 05:10:45;;;;;;;21.35;17.42;;;10.90;99.90;;;;;;5063999;28;20049;-65
2021/10/30 05:13:11;;;;;;;21.02;18.77;;;10.90;99.90;;;;;;5059029;28;20051;-65
2021/10/30 05:15:37;;;;;;;22.73;19.15;;;10.90;99.90;;;;;;5055397;28;20052;-65
2021/10/30 05:18:03;;;;;;;26.02;19.25;;;10.90;99.90;;;;;;5059385;28;20459;-65
2021/10/30 05:20:29;;;;;;;20.55;18.25;;;10.90;99.90;;;;;;5056017;28;20078;-65
2021/10/30 05:22:55;;;;;;;20.52;18.25;;;10.90;99.90;;;;;;5060396;28;20048;-65
2021/10/30 05:25:22;;;;;;;22.95;19.42;;;10.90;99.90;;;;;;5060018;28;20044;-65
2021/10/30 05:27:47;;;;;;;22.00;19.67;;;11.00;99.90;;;;;;5089307;28;20090;-65
2021/10/30 05:30:13;;;;;;;23.40;20.40;;;11.00;99.90;;;;;;5064295;28;20119;-66
2021/10/30 05:32:38;;;;;;;23.02;19.05;;;11.00;99.90;;;;;;5056489;28;20495;-66
2021/10/30 05:35:17;;;;;;;26.33;19.92;;;11.00;99.90;;;;;;5088638;28;20072;-65
2021/10/30 05:37:42;;;;;;;23.80;19.63;;;11.00;99.90;;;;;;5056644;28;20048;-65
2021/10/30 05:40:10;;;;;;;23.38;19.80;;;11.00;99.90;;;;;;5056062;28;20036;-65
2021/10/30 05:42:36;;;;;;;22.17;19.35;;;11.00;99.90;;;;;;5055595;28;20048;-65
2021/10/30 05:45:07;;;;;;;22.55;20.05;;;11.10;99.90;;;;;;5058147;28;20048;-65
2021/10/30 05:47:35;;;;;;;22.08;19.45;;;11.10;99.90;;;;;;5055002;28;20123;-65
2021/10/30 05:50:02;;;;;;;20.75;18.50;;;11.10;99.90;;;;;;5059502;28;20470;-65
2021/10/30 05:52:28;;;;;;;20.52;18.02;;;11.10;99.90;;;;;;5040580;28;20037;-65
2021/10/30 05:54:53;;;;;;;18.67;16.75;;;11.20;99.90;;;;;;5057374;28;20797;-65
2021/10/30 05:57:20;;;;;;;19.73;17.17;;;11.20;99.90;;;;;;5055015;28;20044;-65
2021/10/30 05:59:47;;;;;;;21.00;18.70;;;11.30;99.90;;;;;;5088258;28;20075;-65
2021/10/30 06:02:14;;;;;;;19.42;16.75;;;11.20;99.90;;;;;;5055478;28;20486;-65
2021/10/30 06:04:40;;;;;;;20.15;16.70;;;11.30;99.90;;;;;;5055942;28;20398;-66
2021/10/30 06:07:06;;;;;;;19.65;17.55;;;11.30;99.90;;;;;;5087942;28;20041;-65
2021/10/30 06:09:32;;;;;;;21.73;16.80;;;11.30;99.90;;;;;;5058104;28;20052;-65
2021/10/30 06:11:59;;;;;;;17.85;15.90;;;11.30;99.90;;;;;;5087805;28;20372;-65
2021/10/30 06:14:25;;;;;;;19.13;16.60;;;11.30;99.90;;;;;;5088584;28;20037;-65
2021/10/30 06:16:51;;;;;;;19.15;16.10;;;11.20;99.90;;;;;;5055794;28;20043;-65
2021/10/30 06:19:17;;;;;;;19.52;16.23;;;11.30;99.90;;;;;;5059059;28;20040;-65
2021/10/30 06:21:43;;;;;;;17.38;15.65;;;11.30;99.90;;;;;;5088228;28;20028;-65
2021/10/30 06:24:08;;;;;;;17.85;15.00;;;11.30;99.90;;;;;;5056090;28;21505;-65
2021/10/30 06:26:34;;;;;;;17.05;14.73;;;11.30;99.90;;;;;;5058601;28;20049;-65
2021/10/30 06:29:00;;;;;;;15.57;13.52;;;11.30;99.90;;;;;;5057102;28;20037;-65
2021/10/30 06:31:26;;;;;;;16.50;13.65;;;11.30;99.90;;;;;;5055142;28;20045;-65
2021/10/30 06:33:51;;;;;;;15.73;13.75;;;11.30;99.90;;;;;;5057087;28;20047;-65
2021/10/30 06:36:17;;;;;;;18.85;13.65;;;11.30;99.90;;;;;;5055373;28;20139;-65
2021/10/30 06:38:42;;;;;;;15.35;12.68;;;11.30;99.90;;;;;;5056488;28;20040;-65
2021/10/30 06:41:08;;;;;;;13.85;12.18;;;11.30;99.90;;;;;;5086835;28;20070;-65
2021/10/30 06:43:34;;;;;;;18.67;13.18;;;11.30;99.90;;;;;;5055283;28;20048;-65
2021/10/30 06:46:00;;;;;;;14.52;12.55;;;11.30;99.90;;;;;;5056108;28;20117;-65
2021/10/30 06:48:26;;;;;;;13.68;11.98;;;11.30;99.90;;;;;;5055010;28;20055;-65
2021/10/30 06:50:53;;;;;;;14.23;11.55;;;11.20;99.90;;;;;;5057243;28;20036;-65
2021/10/30 06:53:19;;;;;;;15.70;11.43;;;11.20;99.90;;;;;;5087111;28;20055;-65
2021/10/30 06:55:47;;;;;;;12.73;11.43;;;11.20;99.90;;;;;;5058308;28;20040;-65
2021/10/30 06:58:13;;;;;;;12.30;10.63;;;11.20;99.90;;;;;;5082496;28;20041;-65
2021/10/30 07:00:41;;;;;;;15.55;11.05;;;11.20;99.90;;;;;;5053747;28;20083;-65
2021/10/30 07:03:07;;;;;;;12.20;10.80;;;11.30;99.90;;;;;;5089697;28;20116;-65
2021/10/30 07:05:33;;;;;;;10.43;9.27;;;11.30;99.90;;;;;;5062025;28;20558;-65
2021/10/30 07:07:59;;;;;;;10.93;9.73;;;11.30;99.90;;;;;;5060873;28;20036;-65
2021/10/30 07:10:24;;;;;;;11.32;10.00;;;11.30;99.90;;;;;;5060547;28;20045;-65
2021/10/30 07:12:50;;;;;;;10.70;9.02;;;11.30;99.90;;;;;;5063872;28;20064;-65
2021/10/30 07:15:16;;;;;;;10.63;9.00;;;11.30;99.90;;;;;;5062552;28;20104;-65
2021/10/30 07:17:41;;;;;;;11.43;9.23;;;11.30;99.90;;;;;;5059786;28;20052;-65
2021/10/30 07:20:08;;;;;;;11.45;9.23;;;11.30;99.90;;;;;;5061266;28;20049;-65
2021/10/30 07:22:48;;;;;;;11.77;9.50;;;11.30;99.90;;;;;;5063988;28;20036;-65
2021/10/30 07:25:16;;;;;;;10.90;9.13;;;11.30;99.90;;;;;;5062389;28;20371;-65
2021/10/30 07:27:43;;;;;;;10.95;8.55;;;11.30;99.90;;;;;;5059354;28;20965;-65
2021/10/30 07:30:10;;;;;;;13.25;8.93;;;11.30;99.90;;;;;;5062571;28;20087;-65
2021/10/30 07:32:37;;;;;;;10.18;7.93;;;11.30;99.90;;;;;;5060551;28;20040;-65
2021/10/30 07:35:03;;;;;;;13.57;8.88;;;11.30;99.90;;;;;;5062243;28;20068;-65
2021/10/30 07:37:30;;;;;;;10.45;8.65;;;11.30;99.90;;;;;;5070878;28;20036;-65
2021/10/30 07:39:57;;;;;;;11.35;8.80;;;11.30;99.90;;;;;;5060524;28;20032;-65
2021/10/30 07:42:24;;;;;;;11.27;8.65;;;11.30;99.90;;;;;;5056464;28;20049;-65
2021/10/30 07:44:50;;;;;;;15.50;10.40;;;11.30;99.90;;;;;;5060672;28;20578;-65
2021/10/30 07:47:16;;;;;;;15.07;9.23;;;11.30;99.90;;;;;;5074558;28;20044;-65
2021/10/30 07:49:42;;;;;;;15.38;9.52;;;11.30;99.90;;;;;;5059273;28;20048;-65
2021/10/30 07:52:09;;;;;;;15.88;10.93;;;11.30;99.90;;;;;;5093254;28;20593;-65
2021/10/30 07:54:35;;;;;;;10.30;9.27;;;11.20;99.90;;;;;;5062316;28;20058;-65
2021/10/30 07:57:05;;;;;;;11.90;9.85;;;11.30;99.90;;;;;;5058160;28;20056;-65
2021/10/30 07:59:31;;;;;;;11.98;9.10;;;11.30;99.90;;;;;;5056258;28;20067;-65
2021/10/30 08:02:00;;;;;;;11.85;9.68;;;11.30;99.90;;;;;;5090405;28;20045;-65
2021/10/30 08:04:30;;;;;;;12.82;9.73;;;11.20;99.90;;;;;;5061304;28;20040;-65
2021/10/30 08:06:57;;;;;;;11.80;10.30;;;11.20;99.90;;;;;;5060509;28;20063;-65
2021/10/30 08:09:23;;;;;;;10.70;9.57;;;11.30;99.90;;;;;;5062078;28;20497;-65
2021/10/30 08:11:49;;;;;;;12.68;9.57;;;11.20;99.90;;;;;;5059377;28;20068;-65
2021/10/30 08:14:14;;;;;;;10.98;9.88;;;11.20;99.90;;;;;;5058960;28;20047;-65
2021/10/30 08:16:40;;;;;;;14.93;10.52;;;11.20;99.90;;;;;;5061779;28;20032;-65
2021/10/30 08:19:06;;;;;;;11.90;9.05;;;11.30;99.90;;;;;;5060724;28;20106;-65
2021/10/30 08:21:32;;;;;;;13.75;9.45;;;11.30;99.90;;;;;;5064789;28;20021;-65
2021/10/30 08:23:57;;;;;;;11.00;9.10;;;11.30;99.90;;;;;;5065611;28;20054;-65
2021/10/30 08:26:25;;;;;;;11.68;9.30;;;11.30;99.90;;;;;;5063957;28;20045;-65
2021/10/30 08:28:51;;;;;;;18.63;10.13;;;11.30;99.90;;;;;;5068096;28;20403;-65
2021/10/30 08:31:17;;;;;;;14.48;9.15;;;11.30;99.90;;;;;;5062557;28;20048;-65
2021/10/30 08:33:42;;;;;;;12.43;8.85;;;11.40;99.90;;;;;;5064710;28;20049;-65
2021/10/30 08:36:09;;;;;;;12.00;9.30;;;11.40;99.90;;;;;;5065474;28;20526;-65
2021/10/30 08:38:36;;;;;;;13.90;9.02;;;11.40;99.90;;;;;;5067796;28;20397;-65
2021/10/30 08:41:02;;;;;;;10.75;9.27;;;11.50;99.90;;;;;;5066841;28;20087;-65
2021/10/30 08:43:28;;;;;;;12.02;9.70;;;11.40;99.90;;;;;;5062451;28;20040;-65
2021/10/30 08:45:55;;;;;;;10.15;8.52;;;11.50;99.90;;;;;;5061930;28;20041;-65
2021/10/30 08:48:21;;;;;;;11.07;9.05;;;11.50;99.90;;;;;;5062707;28;20129;-65
2021/10/30 08:50:48;;;;;;;9.45;8.18;;;11.50;99.90;;;;;;5063843;28;20072;-65
2021/10/30 08:53:14;;;;;;;13.38;8.60;;;11.50;99.90;;;;;;5061976;28;20066;-65
2021/10/30 08:55:39;;;;;;;12.20;9.30;;;11.60;99.90;;;;;;5064983;28;20178;-65
2021/10/30 08:58:10;;;;;;;10.38;8.65;;;11.60;99.90;;;;;;5065068;28;20025;-65
2021/10/30 09:00:50;;;;;;;9.38;8.35;;;11.60;99.90;;;;;;5062007;28;20048;-65
2021/10/30 09:03:21;;;;;;;10.45;8.65;;;11.70;99.90;;;;;;5063250;28;20502;-65
2021/10/30 09:05:52;;;;;;;10.18;8.70;;;11.70;99.90;;;;;;5063668;28;20146;-65
2021/10/30 09:08:21;;;;;;;10.85;7.28;;;11.70;99.90;;;;;;5060813;28;20048;-65
2021/10/30 09:10:52;;;;;;;10.00;7.03;;;11.70;99.90;;;;;;5090474;27;20433;-65
2021/10/30 09:13:22;;;;;;;11.30;7.68;;;11.80;99.90;;;;;;5060976;28;20045;-65
2021/10/30 09:15:52;;;;;;;9.75;7.90;;;11.80;99.90;;;;;;5066266;28;20053;-65
2021/10/30 09:18:21;;;;;;;10.05;7.13;;;11.80;99.90;;;;;;5068986;28;20032;-65
2021/10/30 09:20:51;;;;;;;10.68;7.50;;;11.80;99.90;;;;;;5066996;28;20048;-65
2021/10/30 09:23:23;;;;;;;8.93;7.13;;;11.80;99.90;;;;;;5065347;28;20040;-65
2021/10/30 09:26:00;;;;;;;9.85;7.38;;;11.90;99.90;;;;;;5067744;28;20051;-65
2021/10/30 09:28:29;;;;;;;10.95;6.68;;;11.90;99.90;;;;;;5064786;28;20076;-65
2021/10/30 09:31:03;;;;;;;9.43;6.38;;;12.00;99.90;;;;;;5095262;28;20052;-65
2021/10/30 09:33:31;;;;;;;8.80;6.93;;;12.00;99.90;;;;;;5065194;28;20064;-65
2021/10/30 09:36:11;;;;;;;8.50;6.55;;;12.10;99.90;;;;;;5062783;28;20048;-65
2021/10/30 09:38:39;;;;;;;9.52;6.68;;;12.20;99.90;;;;;;5062832;28;20104;-65
2021/10/30 09:41:25;;;;;;;10.27;6.65;;;12.20;99.90;;;;;;5062282;28;20086;-65
2021/10/30 09:44:18;;;;;;;9.18;6.85;;;12.30;99.90;;;;;;5065920;28;20490;-65
2021/10/30 09:46:44;;;;;;;9.45;6.22;;;12.30;99.90;;;;;;5065638;28;20389;-65
2021/10/30 09:49:26;;;;;;;10.93;5.53;;;12.30;99.90;;;;;;5065575;28;20137;-65
2021/10/30 09:52:09;;;;;;;8.38;6.20;;;12.40;99.90;;;;;;5088389;27;20053;-65
2021/10/30 09:54:41;;;;;;;7.25;5.78;;;12.50;99.90;;;;;;5061353;28;20055;-65
2021/10/30 09:57:12;;;;;;;8.93;6.38;;;12.50;99.90;;;;;;5062148;28;20040;-65
2021/10/30 09:59:40;;;;;;;9.70;6.70;;;12.50;99.90;;;;;;5065539;28;20361;-66
2021/10/30 10:02:07;;;;;;;7.15;5.38;;;12.50;99.90;;;;;;5061805;28;20036;-66
2021/10/30 10:04:38;;;;;;;10.63;6.57;;;12.50;99.90;;;;;;5073191;28;20044;-65
2021/10/30 10:07:06;;;;;;;8.90;4.80;;;12.60;99.90;;;;;;5088000;28;20071;-66
2021/10/30 10:09:32;;;;;;;5.38;4.80;;;12.60;99.90;;;;;;5059604;28;20040;-66
2021/10/30 10:12:00;;;;;;;7.00;5.38;;;12.60;99.90;;;;;;5066927;28;20028;-66
2021/10/30 10:14:27;;;;;;;6.05;5.43;;;12.60;99.90;;;;;;5063278;28;20052;-66
2021/10/30 10:16:56;;;;;;;5.53;4.85;;;12.60;99.90;;;;;;5090033;27;20045;-66
2021/10/30 10:19:23;;;;;;;6.07;5.22;;;12.60;99.90;;;;;;5065763;28;20218;-66
2021/10/30 10:21:49;;;;;;;6.00;5.38;;;12.60;99.90;;;;;;5063095;28;20052;-66
2021/10/30 10:24:18;;;;;;;6.30;5.03;;;12.60;99.90;;;;;;5061140;28;20045;-65
2021/10/30 10:26:53;;;;;;;8.13;5.43;;;12.60;99.90;;;;;;5065172;28;20044;-66
2021/10/30 10:29:31;;;;;;;6.90;5.97;;;12.70;99.90;;;;;;5060049;28;20056;-66
2021/10/30 10:31:58;;;;;;;6.97;5.10;;;12.60;99.90;;;;;;5065012;28;20058;-66
2021/10/30 10:34:29;;;;;;;6.20;5.22;;;12.60;99.90;;;;;;5062442;28;20060;-65
2021/10/30 10:37:14;;;;;;;8.38;5.25;;;12.70;99.90;;;;;;5074132;28;20056;-65
2021/10/30 10:39:56;;;;;;;5.65;5.05;;;12.70;99.90;;;;;;5088807;28;20045;-65
2021/10/30 10:42:35;;;;;;;5.22;4.70;;;12.70;99.90;;;;;;5065411;28;20036;-65
2021/10/30 10:45:05;;;;;;;5.63;4.90;;;12.80;99.90;;;;;;5056319;28;20043;-65
2021/10/30 10:47:38;;;;;;;9.82;5.85;;;12.80;99.90;;;;;;5063315;28;20432;-66
2021/10/30 10:50:26;;;;;;;9.43;6.20;;;12.80;99.90;;;;;;5059166;28;20127;-66
2021/10/30 10:53:06;;;;;;;7.03;5.03;;;12.70;99.90;;;;;;5086345;28;20090;-66
2021/10/30 10:55:56;;;;;;;6.53;5.20;;;12.80;99.90;;;;;;5065239;28;20045;-66
2021/10/30 10:58:22;;;;;;;8.40;4.35;;;12.80;99.90;;;;;;5053940;28;21449;-66
2021/10/30 11:01:11;;;;;;;6.90;4.60;;;12.80;99.90;;;;;;5094224;28;20062;-66
2021/10/30 11:03:46;;;;;;;7.18;5.05;;;12.70;99.90;;;;;;5060721;28;20060;-65
2021/10/30 11:06:12;;;;;;;7.68;5.20;;;12.70;99.90;;;;;;5056295;28;20040;-66
2021/10/30 11:12:23;;;;;;;5.45;4.85;;;12.70;99.90;;;;;;5056140;28;20036;-69
2021/10/30 11:15:05;;;;;;;5.50;4.95;;;12.70;99.90;;;;;;5057110;28;20045;-68
2021/10/30 11:17:49;;;;;;;8.43;4.93;;;12.70;99.90;;;;;;5058588;28;20595;-68
2021/10/30 11:20:17;;;;;;;6.88;5.20;;;12.70;99.90;;;;;;5054332;28;20045;-68
2021/10/30 11:22:54;;;;;;;6.70;5.75;;;12.70;99.90;;;;;;5061131;28;20028;-68
2021/10/30 11:25:20;;;;;;;6.43;4.85;;;12.70;99.90;;;;;;5063818;28;20151;-68
2021/10/30 11:27:58;;;;;;;6.78;5.18;;;12.70;99.90;;;;;;5062964;28;20125;-68
2021/10/30 11:30:33;;;;;;;7.78;5.78;;;12.80;99.90;;;;;;5069642;28;20040;-68
2021/10/30 11:33:26;;;;;;;6.78;4.85;;;12.70;99.90;;;;;;5061742;28;20052;-68
2021/10/30 11:36:07;;;;;;;5.32;4.82;;;12.80;99.90;;;;;;5075567;28;20051;-68
2021/10/30 11:38:44;;;;;;;9.27;5.45;;;12.80;99.90;;;;;;5057905;28;20064;-68
2021/10/30 11:41:14;;;;;;;6.43;5.50;;;12.70;99.90;;;;;;5056617;28;20119;-68
2021/10/30 11:43:41;;;;;;;7.10;5.45;;;12.80;99.90;;;;;;5057671;28;20040;-68
2021/10/30 11:46:13;;;;;;;6.45;5.57;;;12.80;99.90;;;;;;5057667;28;20063;-68
2021/10/30 11:48:55;;;;;;;6.68;4.85;;;12.80;99.90;;;;;;5057869;28;20043;-68
2021/10/30 11:51:37;;;;;;;5.63;4.45;;;12.80;99.90;;;;;;5061621;28;20097;-68
2021/10/30 11:54:05;;;;;;;6.65;5.50;;;12.80;99.90;;;;;;5057725;28;20040;-68
2021/10/30 11:56:32;;;;;;;6.18;4.43;;;12.80;99.90;;;;;;5056550;28;20041;-68
2021/10/30 11:59:00;;;;;;;5.05;4.63;;;12.80;99.90;;;;;;5058234;27;20067;-68
2021/10/30 12:01:30;;;;;;;5.88;5.28;;;12.90;99.90;;;;;;5060345;28;20044;-68
2021/10/30 12:04:01;;;;;;;8.85;5.07;;;12.90;99.90;;;;;;5061023;28;20095;-68
2021/10/30 12:06:29;;;;;;;7.20;5.30;;;12.90;99.90;;;;;;5057346;28;20048;-68
2021/10/30 12:09:00;;;;;;;9.57;5.43;;;12.90;99.90;;;;;;5087599;28;20064;-68
2021/10/30 12:11:27;;;;;;;6.35;4.35;;;12.90;99.90;;;;;;5060472;28;20457;-68
2021/10/30 12:13:59;;;;;;;9.68;4.82;;;12.90;99.90;;;;;;5059313;28;20055;-68
2021/10/30 12:16:26;;;;;;;5.78;4.78;;;13.00;99.90;;;;;;5061463;28;20044;-68
2021/10/30 12:18:54;;;;;;;7.53;4.72;;;13.00;99.90;;;;;;5059660;28;20041;-68
2021/10/30 12:21:20;;;;;;;6.80;4.60;;;13.00;99.90;;;;;;5056640;28;20040;-68
2021/10/30 12:23:58;;;;;;;5.47;4.82;;;13.00;99.90;;;;;;5062118;28;20052;-68
2021/10/30 12:26:28;;;;;;;7.50;5.40;;;13.10;99.90;;;;;;5086239;28;20527;-68
2021/10/30 12:29:15;;;;;;;9.27;4.75;;;13.00;99.90;;;;;;5058570;28;20045;-68
2021/10/30 12:31:55;;;;;;;4.80;4.13;;;13.10;99.90;;;;;;5060502;28;20036;-68
2021/10/30 12:34:24;;;;;;;8.70;4.95;;;13.10;99.90;;;;;;5061162;28;20056;-68
2021/10/30 12:36:50;;;;;;;7.65;4.55;;;13.00;99.90;;;;;;5057001;28;20045;-68
2021/10/30 12:39:20;;;;;;;5.78;4.85;;;13.00;99.90;;;;;;5057075;28;20044;-68
2021/10/30 12:41:53;;;;;;;6.78;4.43;;;13.00;99.90;;;;;;5058314;28;20037;-68
2021/10/30 12:44:31;;;;;;;4.65;4.18;;;13.10;99.90;;;;;;5090781;27;20064;-68
2021/10/30 12:47:01;;;;;;;4.80;3.97;;;13.00;99.90;;;;;;5062564;28;20059;-68